sensor_id;sensor_type;location;lat;lon;timestamp;temperature;humidity
37232;DHT22;23125;48.156;15.954;2024-02-28T00:01:50;15.00;55.10
37232;DHT22;23125;48.156;15.954;2024-02-28T00:04:16;15.00;55.20
37232;DHT22;23125;48.156;15.954;2024-02-28T00:06:42;14.90;55.20
37232;DHT22;23125;48.156;15.954;2024-02-28T00:09:08;14.90;55.30
37232;DHT22;23125;48.156;15.954;2024-02-28T00:11:34;14.90;55.40
37232;DHT22;23125;48.156;15.954;2024-02-28T00:14:00;14.90;55.50
37232;DHT22;23125;48.156;15.954;2024-02-28T00:16:27;14.90;55.50
37232;DHT22;23125;48.156;15.954;2024-02-28T00:18:53;14.90;55.60
37232;DHT22;23125;48.156;15.954;2024-02-28T00:21:20;14.80;55.60
37232;DHT22;23125;48.156;15.954;2024-02-28T00:23:46;14.90;55.60
37232;DHT22;23125;48.156;15.954;2024-02-28T00:26:12;14.80;55.60
37232;DHT22;23125;48.156;15.954;2024-02-28T00:28:38;14.80;55.60
37232;DHT22;23125;48.156;15.954;2024-02-28T00:31:04;14.80;55.60
37232;DHT22;23125;48.156;15.954;2024-02-28T00:33:30;14.80;55.60
37232;DHT22;23125;48.156;15.954;2024-02-28T00:35:55;14.80;55.80
37232;DHT22;23125;48.156;15.954;2024-02-28T00:38:21;14.80;55.70
37232;DHT22;23125;48.156;15.954;2024-02-28T00:40:48;14.80;55.50
37232;DHT22;23125;48.156;15.954;2024-02-28T00:43:13;14.80;55.60
37232;DHT22;23125;48.156;15.954;2024-02-28T00:45:39;14.70;55.50
37232;DHT22;23125;48.156;15.954;2024-02-28T00:48:05;14.70;55.50
37232;DHT22;23125;48.156;15.954;2024-02-28T00:50:31;14.70;55.50
37232;DHT22;23125;48.156;15.954;2024-02-28T00:52:57;14.70;55.60
37232;DHT22;23125;48.156;15.954;2024-02-28T00:55:23;14.60;55.60
37232;DHT22;23125;48.156;15.954;2024-02-28T00:57:49;14.60;55.60
37232;DHT22;23125;48.156;15.954;2024-02-28T01:00:15;14.60;55.70
37232;DHT22;23125;48.156;15.954;2024-02-28T01:02:41;14.60;55.80
37232;DHT22;23125;48.156;15.954;2024-02-28T01:05:07;14.60;55.80
37232;DHT22;23125;48.156;15.954;2024-02-28T01:07:33;14.60;55.70
37232;DHT22;23125;48.156;15.954;2024-02-28T01:09:59;14.50;55.60
37232;DHT22;23125;48.156;15.954;2024-02-28T01:12:25;14.50;55.40
37232;DHT22;23125;48.156;15.954;2024-02-28T01:14:51;14.40;55.40
37232;DHT22;23125;48.156;15.954;2024-02-28T01:17:16;14.40;55.50
37232;DHT22;23125;48.156;15.954;2024-02-28T01:19:42;14.40;55.60
37232;DHT22;23125;48.156;15.954;2024-02-28T01:22:08;14.40;55.60
37232;DHT22;23125;48.156;15.954;2024-02-28T01:24:34;14.30;55.60
37232;DHT22;23125;48.156;15.954;2024-02-28T01:27:00;14.30;55.60
37232;DHT22;23125;48.156;15.954;2024-02-28T01:29:26;14.30;55.60
37232;DHT22;23125;48.156;15.954;2024-02-28T01:31:52;14.20;55.50
37232;DHT22;23125;48.156;15.954;2024-02-28T01:34:18;14.20;55.60
37232;DHT22;23125;48.156;15.954;2024-02-28T01:36:44;14.20;55.60
37232;DHT22;23125;48.156;15.954;2024-02-28T01:39:10;14.10;55.70
37232;DHT22;23125;48.156;15.954;2024-02-28T01:41:36;14.10;55.90
37232;DHT22;23125;48.156;15.954;2024-02-28T01:44:02;14.10;55.90
37232;DHT22;23125;48.156;15.954;2024-02-28T01:46:28;14.10;55.80
37232;DHT22;23125;48.156;15.954;2024-02-28T01:48:55;14.10;55.90
37232;DHT22;23125;48.156;15.954;2024-02-28T01:51:24;14.00;55.90
37232;DHT22;23125;48.156;15.954;2024-02-28T01:53:54;14.00;55.80
37232;DHT22;23125;48.156;15.954;2024-02-28T01:56:22;14.00;55.80
37232;DHT22;23125;48.156;15.954;2024-02-28T01:58:49;13.90;55.90
37232;DHT22;23125;48.156;15.954;2024-02-28T02:01:16;13.90;56.00
37232;DHT22;23125;48.156;15.954;2024-02-28T02:03:43;13.90;56.10
37232;DHT22;23125;48.156;15.954;2024-02-28T02:06:10;13.90;56.20
37232;DHT22;23125;48.156;15.954;2024-02-28T02:08:36;13.80;56.20
37232;DHT22;23125;48.156;15.954;2024-02-28T02:11:03;13.80;56.00
37232;DHT22;23125;48.156;15.954;2024-02-28T02:13:29;13.80;56.00
37232;DHT22;23125;48.156;15.954;2024-02-28T02:15:55;13.70;56.10
37232;DHT22;23125;48.156;15.954;2024-02-28T02:18:22;13.70;56.20
37232;DHT22;23125;48.156;15.954;2024-02-28T02:21:01;13.70;56.20
37232;DHT22;23125;48.156;15.954;2024-02-28T02:23:30;13.70;56.40
37232;DHT22;23125;48.156;15.954;2024-02-28T02:25:55;13.70;56.50
37232;DHT22;23125;48.156;15.954;2024-02-28T02:28:21;13.70;56.50
37232;DHT22;23125;48.156;15.954;2024-02-28T02:30:47;13.60;56.40
37232;DHT22;23125;48.156;15.954;2024-02-28T02:33:13;13.60;56.40
37232;DHT22;23125;48.156;15.954;2024-02-28T02:35:40;13.60;56.50
37232;DHT22;23125;48.156;15.954;2024-02-28T02:38:05;13.60;56.60
37232;DHT22;23125;48.156;15.954;2024-02-28T02:40:32;13.60;56.50
37232;DHT22;23125;48.156;15.954;2024-02-28T02:42:58;13.50;56.50
37232;DHT22;23125;48.156;15.954;2024-02-28T02:45:24;13.50;56.50
37232;DHT22;23125;48.156;15.954;2024-02-28T02:47:50;13.50;56.50
37232;DHT22;23125;48.156;15.954;2024-02-28T02:50:16;13.50;56.50
37232;DHT22;23125;48.156;15.954;2024-02-28T02:52:41;13.40;56.40
37232;DHT22;23125;48.156;15.954;2024-02-28T02:55:07;13.40;56.30
37232;DHT22;23125;48.156;15.954;2024-02-28T02:57:33;13.40;56.30
37232;DHT22;23125;48.156;15.954;2024-02-28T02:59:59;13.30;56.20
37232;DHT22;23125;48.156;15.954;2024-02-28T03:02:25;13.30;56.10
37232;DHT22;23125;48.156;15.954;2024-02-28T03:04:51;13.20;56.20
37232;DHT22;23125;48.156;15.954;2024-02-28T03:07:17;13.20;56.30
37232;DHT22;23125;48.156;15.954;2024-02-28T03:09:42;13.10;56.30
37232;DHT22;23125;48.156;15.954;2024-02-28T03:12:08;13.10;56.30
37232;DHT22;23125;48.156;15.954;2024-02-28T03:14:37;13.00;56.20
37232;DHT22;23125;48.156;15.954;2024-02-28T03:17:03;12.90;56.30
37232;DHT22;23125;48.156;15.954;2024-02-28T03:19:29;12.90;56.30
37232;DHT22;23125;48.156;15.954;2024-02-28T03:21:54;12.90;56.40
37232;DHT22;23125;48.156;15.954;2024-02-28T03:24:20;12.80;56.40
37232;DHT22;23125;48.156;15.954;2024-02-28T03:26:46;12.80;56.40
37232;DHT22;23125;48.156;15.954;2024-02-28T03:29:12;12.70;56.40
37232;DHT22;23125;48.156;15.954;2024-02-28T03:31:38;12.70;56.40
37232;DHT22;23125;48.156;15.954;2024-02-28T03:34:04;12.60;56.30
37232;DHT22;23125;48.156;15.954;2024-02-28T03:36:29;12.60;56.40
37232;DHT22;23125;48.156;15.954;2024-02-28T03:38:58;12.60;57.00
37232;DHT22;23125;48.156;15.954;2024-02-28T03:41:24;12.50;56.30
37232;DHT22;23125;48.156;15.954;2024-02-28T03:43:50;12.40;56.20
37232;DHT22;23125;48.156;15.954;2024-02-28T03:46:16;12.40;56.20
37232;DHT22;23125;48.156;15.954;2024-02-28T03:48:41;12.30;56.30
37232;DHT22;23125;48.156;15.954;2024-02-28T03:51:07;12.30;56.40
37232;DHT22;23125;48.156;15.954;2024-02-28T03:53:33;12.30;56.40
37232;DHT22;23125;48.156;15.954;2024-02-28T03:55:59;12.20;56.40
37232;DHT22;23125;48.156;15.954;2024-02-28T03:58:25;12.10;56.00
37232;DHT22;23125;48.156;15.954;2024-02-28T04:00:51;12.00;56.00
37232;DHT22;23125;48.156;15.954;2024-02-28T04:03:16;11.90;56.20
37232;DHT22;23125;48.156;15.954;2024-02-28T04:05:42;11.90;56.50
37232;DHT22;23125;48.156;15.954;2024-02-28T04:08:08;11.90;56.50
37232;DHT22;23125;48.156;15.954;2024-02-28T04:10:34;11.80;56.40
37232;DHT22;23125;48.156;15.954;2024-02-28T04:13:00;11.80;56.60
37232;DHT22;23125;48.156;15.954;2024-02-28T04:15:26;11.80;56.70
37232;DHT22;23125;48.156;15.954;2024-02-28T04:17:52;11.70;56.60
37232;DHT22;23125;48.156;15.954;2024-02-28T04:20:18;11.70;56.60
37232;DHT22;23125;48.156;15.954;2024-02-28T04:22:43;11.60;56.60
37232;DHT22;23125;48.156;15.954;2024-02-28T04:25:09;11.60;56.70
37232;DHT22;23125;48.156;15.954;2024-02-28T04:27:36;11.50;56.70
37232;DHT22;23125;48.156;15.954;2024-02-28T04:30:03;11.50;56.80
37232;DHT22;23125;48.156;15.954;2024-02-28T04:32:29;11.40;56.80
37232;DHT22;23125;48.156;15.954;2024-02-28T04:34:55;11.40;56.60
37232;DHT22;23125;48.156;15.954;2024-02-28T04:37:21;11.30;56.30
37232;DHT22;23125;48.156;15.954;2024-02-28T04:39:47;11.30;56.60
37232;DHT22;23125;48.156;15.954;2024-02-28T04:42:13;11.30;56.90
37232;DHT22;23125;48.156;15.954;2024-02-28T04:44:40;11.20;56.80
37232;DHT22;23125;48.156;15.954;2024-02-28T04:47:05;11.10;56.60
37232;DHT22;23125;48.156;15.954;2024-02-28T04:49:31;11.10;56.90
37232;DHT22;23125;48.156;15.954;2024-02-28T04:51:57;11.10;57.00
37232;DHT22;23125;48.156;15.954;2024-02-28T04:54:24;11.10;56.90
37232;DHT22;23125;48.156;15.954;2024-02-28T04:56:50;11.00;57.00
37232;DHT22;23125;48.156;15.954;2024-02-28T04:59:17;11.00;56.80
37232;DHT22;23125;48.156;15.954;2024-02-28T05:01:43;10.90;56.70
37232;DHT22;23125;48.156;15.954;2024-02-28T05:04:09;10.90;57.00
37232;DHT22;23125;48.156;15.954;2024-02-28T05:06:35;10.90;57.20
37232;DHT22;23125;48.156;15.954;2024-02-28T05:09:02;10.80;57.00
37232;DHT22;23125;48.156;15.954;2024-02-28T05:11:28;10.80;56.90
37232;DHT22;23125;48.156;15.954;2024-02-28T05:13:54;10.80;57.10
37232;DHT22;23125;48.156;15.954;2024-02-28T05:16:20;10.70;57.00
37232;DHT22;23125;48.156;15.954;2024-02-28T05:18:46;10.70;57.00
37232;DHT22;23125;48.156;15.954;2024-02-28T05:21:12;10.60;57.10
37232;DHT22;23125;48.156;15.954;2024-02-28T05:23:40;10.60;57.30
37232;DHT22;23125;48.156;15.954;2024-02-28T05:26:06;10.60;57.10
37232;DHT22;23125;48.156;15.954;2024-02-28T05:28:33;10.50;57.00
37232;DHT22;23125;48.156;15.954;2024-02-28T05:31:24;10.50;57.20
37232;DHT22;23125;48.156;15.954;2024-02-28T05:33:54;10.40;57.30
37232;DHT22;23125;48.156;15.954;2024-02-28T05:36:24;10.40;57.30
37232;DHT22;23125;48.156;15.954;2024-02-28T05:38:51;10.40;57.50
37232;DHT22;23125;48.156;15.954;2024-02-28T05:41:17;10.40;58.20
37232;DHT22;23125;48.156;15.954;2024-02-28T05:43:44;10.30;57.50
37232;DHT22;23125;48.156;15.954;2024-02-28T05:46:12;10.30;57.40
37232;DHT22;23125;48.156;15.954;2024-02-28T05:48:40;10.30;57.60
37232;DHT22;23125;48.156;15.954;2024-02-28T05:51:06;10.30;57.60
37232;DHT22;23125;48.156;15.954;2024-02-28T05:53:32;10.20;57.40
37232;DHT22;23125;48.156;15.954;2024-02-28T05:56:04;10.10;57.30
37232;DHT22;23125;48.156;15.954;2024-02-28T05:58:30;10.10;57.70
37232;DHT22;23125;48.156;15.954;2024-02-28T06:00:59;10.10;57.80
37232;DHT22;23125;48.156;15.954;2024-02-28T06:03:24;10.10;58.00
37232;DHT22;23125;48.156;15.954;2024-02-28T06:05:50;10.10;58.10
37232;DHT22;23125;48.156;15.954;2024-02-28T06:08:18;10.10;57.70
37232;DHT22;23125;48.156;15.954;2024-02-28T06:10:44;10.00;57.90
37232;DHT22;23125;48.156;15.954;2024-02-28T06:13:12;10.00;58.10
37232;DHT22;23125;48.156;15.954;2024-02-28T06:15:39;10.00;58.30
37232;DHT22;23125;48.156;15.954;2024-02-28T06:18:05;10.00;58.30
37232;DHT22;23125;48.156;15.954;2024-02-28T06:20:30;10.10;58.40
37232;DHT22;23125;48.156;15.954;2024-02-28T06:22:57;10.10;58.40
37232;DHT22;23125;48.156;15.954;2024-02-28T06:25:23;10.10;58.40
37232;DHT22;23125;48.156;15.954;2024-02-28T06:27:49;10.10;59.10
37232;DHT22;23125;48.156;15.954;2024-02-28T06:30:16;10.10;58.60
37232;DHT22;23125;48.156;15.954;2024-02-28T06:32:43;10.10;58.50
37232;DHT22;23125;48.156;15.954;2024-02-28T06:35:09;10.10;58.60
37232;DHT22;23125;48.156;15.954;2024-02-28T06:37:35;10.10;58.60
37232;DHT22;23125;48.156;15.954;2024-02-28T06:40:03;10.20;58.50
37232;DHT22;23125;48.156;15.954;2024-02-28T06:42:34;10.20;58.70
37232;DHT22;23125;48.156;15.954;2024-02-28T06:45:05;10.20;58.80
37232;DHT22;23125;48.156;15.954;2024-02-28T06:47:32;10.20;58.70
37232;DHT22;23125;48.156;15.954;2024-02-28T06:49:58;10.20;58.80
37232;DHT22;23125;48.156;15.954;2024-02-28T06:52:24;10.20;59.00
37232;DHT22;23125;48.156;15.954;2024-02-28T06:54:50;10.30;59.20
37232;DHT22;23125;48.156;15.954;2024-02-28T06:57:17;10.30;59.00
37232;DHT22;23125;48.156;15.954;2024-02-28T06:59:43;10.30;59.10
37232;DHT22;23125;48.156;15.954;2024-02-28T07:02:08;10.30;59.20
37232;DHT22;23125;48.156;15.954;2024-02-28T07:04:34;10.40;59.40
37232;DHT22;23125;48.156;15.954;2024-02-28T07:07:00;10.40;59.50
37232;DHT22;23125;48.156;15.954;2024-02-28T07:09:26;10.50;59.70
37232;DHT22;23125;48.156;15.954;2024-02-28T07:11:55;10.50;59.60
37232;DHT22;23125;48.156;15.954;2024-02-28T07:14:21;10.60;59.70
37232;DHT22;23125;48.156;15.954;2024-02-28T07:16:47;10.70;59.80
37232;DHT22;23125;48.156;15.954;2024-02-28T07:19:13;10.70;59.80
37232;DHT22;23125;48.156;15.954;2024-02-28T07:21:38;10.80;60.00
37232;DHT22;23125;48.156;15.954;2024-02-28T07:24:04;10.80;60.10
37232;DHT22;23125;48.156;15.954;2024-02-28T07:26:32;10.90;60.20
37232;DHT22;23125;48.156;15.954;2024-02-28T07:28:57;11.00;61.00
37232;DHT22;23125;48.156;15.954;2024-02-28T07:31:23;11.10;60.40
37232;DHT22;23125;48.156;15.954;2024-02-28T07:33:49;11.20;60.70
37232;DHT22;23125;48.156;15.954;2024-02-28T07:36:15;11.30;60.60
37232;DHT22;23125;48.156;15.954;2024-02-28T07:38:44;11.40;60.70
37232;DHT22;23125;48.156;15.954;2024-02-28T07:41:10;11.50;60.60
37232;DHT22;23125;48.156;15.954;2024-02-28T07:43:36;11.60;60.70
37232;DHT22;23125;48.156;15.954;2024-02-28T07:46:08;11.70;60.60
37232;DHT22;23125;48.156;15.954;2024-02-28T07:48:35;11.80;60.60
37232;DHT22;23125;48.156;15.954;2024-02-28T07:51:01;11.80;60.50
37232;DHT22;23125;48.156;15.954;2024-02-28T07:53:27;11.90;60.50
37232;DHT22;23125;48.156;15.954;2024-02-28T07:55:53;12.00;60.60
37232;DHT22;23125;48.156;15.954;2024-02-28T07:58:19;12.10;60.60
37232;DHT22;23125;48.156;15.954;2024-02-28T08:00:45;12.20;60.70
37232;DHT22;23125;48.156;15.954;2024-02-28T08:03:10;12.30;60.60
37232;DHT22;23125;48.156;15.954;2024-02-28T08:05:36;12.30;60.60
37232;DHT22;23125;48.156;15.954;2024-02-28T08:08:07;12.50;60.60
37232;DHT22;23125;48.156;15.954;2024-02-28T08:10:33;12.50;60.60
37232;DHT22;23125;48.156;15.954;2024-02-28T08:13:07;12.60;61.40
37232;DHT22;23125;48.156;15.954;2024-02-28T08:15:35;12.80;61.00
37232;DHT22;23125;48.156;15.954;2024-02-28T08:18:01;12.90;60.80
37232;DHT22;23125;48.156;15.954;2024-02-28T08:20:27;13.00;60.80
37232;DHT22;23125;48.156;15.954;2024-02-28T08:22:53;13.10;60.80
37232;DHT22;23125;48.156;15.954;2024-02-28T08:25:19;13.20;60.80
37232;DHT22;23125;48.156;15.954;2024-02-28T08:27:45;13.30;60.70
37232;DHT22;23125;48.156;15.954;2024-02-28T08:30:11;13.50;60.90
37232;DHT22;23125;48.156;15.954;2024-02-28T08:32:37;13.70;60.90
37232;DHT22;23125;48.156;15.954;2024-02-28T08:35:06;13.80;60.40
37232;DHT22;23125;48.156;15.954;2024-02-28T08:37:32;13.90;60.00
37232;DHT22;23125;48.156;15.954;2024-02-28T08:39:58;14.00;60.40
37232;DHT22;23125;48.156;15.954;2024-02-28T08:42:27;14.10;60.30
37232;DHT22;23125;48.156;15.954;2024-02-28T08:44:53;14.20;59.90
37232;DHT22;23125;48.156;15.954;2024-02-28T08:47:25;14.30;59.70
37232;DHT22;23125;48.156;15.954;2024-02-28T08:49:54;14.40;59.60
37232;DHT22;23125;48.156;15.954;2024-02-28T08:52:21;14.50;59.60
37232;DHT22;23125;48.156;15.954;2024-02-28T08:54:48;14.60;59.60
37232;DHT22;23125;48.156;15.954;2024-02-28T08:57:15;14.80;59.60
37232;DHT22;23125;48.156;15.954;2024-02-28T08:59:41;14.90;59.30
37232;DHT22;23125;48.156;15.954;2024-02-28T09:02:08;15.00;59.70
37232;DHT22;23125;48.156;15.954;2024-02-28T09:04:34;15.00;58.50
37232;DHT22;23125;48.156;15.954;2024-02-28T09:07:00;15.10;58.30
37232;DHT22;23125;48.156;15.954;2024-02-28T09:09:26;15.20;58.30
37232;DHT22;23125;48.156;15.954;2024-02-28T09:11:54;15.30;58.20
37232;DHT22;23125;48.156;15.954;2024-02-28T09:14:20;15.30;58.00
37232;DHT22;23125;48.156;15.954;2024-02-28T09:16:46;15.40;58.10
37232;DHT22;23125;48.156;15.954;2024-02-28T09:19:13;15.50;57.70
37232;DHT22;23125;48.156;15.954;2024-02-28T09:21:39;15.60;57.20
37232;DHT22;23125;48.156;15.954;2024-02-28T09:24:05;15.60;57.50
37232;DHT22;23125;48.156;15.954;2024-02-28T09:26:31;15.70;57.00
37232;DHT22;23125;48.156;15.954;2024-02-28T09:28:57;15.70;56.20
37232;DHT22;23125;48.156;15.954;2024-02-28T09:31:22;15.80;56.40
37232;DHT22;23125;48.156;15.954;2024-02-28T09:33:48;15.80;56.40
37232;DHT22;23125;48.156;15.954;2024-02-28T09:36:14;15.80;55.90
37232;DHT22;23125;48.156;15.954;2024-02-28T09:38:41;15.80;55.60
37232;DHT22;23125;48.156;15.954;2024-02-28T09:41:14;15.80;55.40
37232;DHT22;23125;48.156;15.954;2024-02-28T09:43:42;15.80;55.30
37232;DHT22;23125;48.156;15.954;2024-02-28T09:46:08;15.80;55.30
37232;DHT22;23125;48.156;15.954;2024-02-28T09:48:41;15.80;54.90
37232;DHT22;23125;48.156;15.954;2024-02-28T09:51:09;15.80;54.70
37232;DHT22;23125;48.156;15.954;2024-02-28T09:53:38;15.70;54.50
37232;DHT22;23125;48.156;15.954;2024-02-28T09:56:06;15.70;54.30
37232;DHT22;23125;48.156;15.954;2024-02-28T09:58:33;15.60;54.10
37232;DHT22;23125;48.156;15.954;2024-02-28T10:01:02;15.60;54.40
37232;DHT22;23125;48.156;15.954;2024-02-28T10:03:30;15.60;54.40
37232;DHT22;23125;48.156;15.954;2024-02-28T10:05:57;15.50;54.30
37232;DHT22;23125;48.156;15.954;2024-02-28T10:08:23;15.50;53.80
37232;DHT22;23125;48.156;15.954;2024-02-28T10:10:50;15.40;53.90
37232;DHT22;23125;48.156;15.954;2024-02-28T10:13:20;15.40;54.00
37232;DHT22;23125;48.156;15.954;2024-02-28T10:15:49;15.40;54.00
37232;DHT22;23125;48.156;15.954;2024-02-28T10:18:15;15.40;54.00
37232;DHT22;23125;48.156;15.954;2024-02-28T10:20:42;15.30;54.40
37232;DHT22;23125;48.156;15.954;2024-02-28T10:23:08;15.30;53.70
37232;DHT22;23125;48.156;15.954;2024-02-28T10:25:46;15.20;53.50
37232;DHT22;23125;48.156;15.954;2024-02-28T10:28:14;15.20;53.50
37232;DHT22;23125;48.156;15.954;2024-02-28T10:30:41;15.20;53.70
37232;DHT22;23125;48.156;15.954;2024-02-28T10:33:14;15.20;53.80
37232;DHT22;23125;48.156;15.954;2024-02-28T10:35:42;15.20;53.90
37232;DHT22;23125;48.156;15.954;2024-02-28T10:38:13;15.20;53.60
37232;DHT22;23125;48.156;15.954;2024-02-28T10:40:42;15.10;53.40
37232;DHT22;23125;48.156;15.954;2024-02-28T10:43:09;15.10;53.70
37232;DHT22;23125;48.156;15.954;2024-02-28T10:45:36;15.10;53.80
37232;DHT22;23125;48.156;15.954;2024-02-28T10:48:06;15.20;53.80
37232;DHT22;23125;48.156;15.954;2024-02-28T10:50:33;15.10;53.60
37232;DHT22;23125;48.156;15.954;2024-02-28T10:53:03;15.10;53.80
37232;DHT22;23125;48.156;15.954;2024-02-28T10:55:35;15.20;53.70
37232;DHT22;23125;48.156;15.954;2024-02-28T10:58:09;15.20;53.60
37232;DHT22;23125;48.156;15.954;2024-02-28T11:00:39;15.20;53.70
37232;DHT22;23125;48.156;15.954;2024-02-28T11:03:08;15.30;53.70
37232;DHT22;23125;48.156;15.954;2024-02-28T11:05:36;15.30;53.80
37232;DHT22;23125;48.156;15.954;2024-02-28T11:08:24;15.30;53.40
37232;DHT22;23125;48.156;15.954;2024-02-28T11:11:03;15.30;53.30
37232;DHT22;23125;48.156;15.954;2024-02-28T11:13:29;15.30;53.00
37232;DHT22;23125;48.156;15.954;2024-02-28T11:16:07;15.40;53.30
37232;DHT22;23125;48.156;15.954;2024-02-28T11:18:33;15.30;53.30
37232;DHT22;23125;48.156;15.954;2024-02-28T11:20:59;15.30;53.30
37232;DHT22;23125;48.156;15.954;2024-02-28T11:23:25;15.40;53.20
37232;DHT22;23125;48.156;15.954;2024-02-28T11:25:51;15.40;53.30
37232;DHT22;23125;48.156;15.954;2024-02-28T11:28:17;15.50;53.50
37232;DHT22;23125;48.156;15.954;2024-02-28T11:30:48;15.60;53.60
37232;DHT22;23125;48.156;15.954;2024-02-28T11:33:14;15.70;53.60
37232;DHT22;23125;48.156;15.954;2024-02-28T11:35:40;15.70;53.40
37232;DHT22;23125;48.156;15.954;2024-02-28T11:38:07;15.80;53.30
37232;DHT22;23125;48.156;15.954;2024-02-28T11:40:33;15.90;53.30
37232;DHT22;23125;48.156;15.954;2024-02-28T11:42:58;16.00;53.20
37232;DHT22;23125;48.156;15.954;2024-02-28T11:45:29;16.10;52.90
37232;DHT22;23125;48.156;15.954;2024-02-28T11:47:56;16.10;52.70
37232;DHT22;23125;48.156;15.954;2024-02-28T11:50:22;16.20;52.80
37232;DHT22;23125;48.156;15.954;2024-02-28T11:52:49;16.30;52.50
37232;DHT22;23125;48.156;15.954;2024-02-28T11:55:15;16.30;52.30
37232;DHT22;23125;48.156;15.954;2024-02-28T11:57:40;16.40;52.40
37232;DHT22;23125;48.156;15.954;2024-02-28T12:00:07;16.40;52.40
37232;DHT22;23125;48.156;15.954;2024-02-28T12:02:34;16.40;51.90
37232;DHT22;23125;48.156;15.954;2024-02-28T12:05:02;16.40;51.50
37232;DHT22;23125;48.156;15.954;2024-02-28T12:07:30;16.40;51.50
37232;DHT22;23125;48.156;15.954;2024-02-28T12:09:57;16.50;51.60
37232;DHT22;23125;48.156;15.954;2024-02-28T12:12:23;16.50;51.40
37232;DHT22;23125;48.156;15.954;2024-02-28T12:14:50;16.40;51.00
37232;DHT22;23125;48.156;15.954;2024-02-28T12:17:17;16.40;51.00
37232;DHT22;23125;48.156;15.954;2024-02-28T12:19:43;16.40;50.90
37232;DHT22;23125;48.156;15.954;2024-02-28T12:22:10;16.30;50.80
37232;DHT22;23125;48.156;15.954;2024-02-28T12:24:36;16.40;51.20
37232;DHT22;23125;48.156;15.954;2024-02-28T12:27:02;16.40;51.20
37232;DHT22;23125;48.156;15.954;2024-02-28T12:29:28;16.40;50.80
37232;DHT22;23125;48.156;15.954;2024-02-28T12:31:54;16.40;50.90
37232;DHT22;23125;48.156;15.954;2024-02-28T12:34:20;16.40;51.10
37232;DHT22;23125;48.156;15.954;2024-02-28T12:36:46;16.50;51.20
37232;DHT22;23125;48.156;15.954;2024-02-28T12:39:12;16.50;50.60
37232;DHT22;23125;48.156;15.954;2024-02-28T12:41:39;16.50;50.60
37232;DHT22;23125;48.156;15.954;2024-02-28T12:44:06;16.40;50.50
37232;DHT22;23125;48.156;15.954;2024-02-28T12:46:33;16.40;50.50
37232;DHT22;23125;48.156;15.954;2024-02-28T12:48:59;16.40;50.50
37232;DHT22;23125;48.156;15.954;2024-02-28T12:51:39;16.40;50.60
37232;DHT22;23125;48.156;15.954;2024-02-28T12:54:07;16.40;50.80
37232;DHT22;23125;48.156;15.954;2024-02-28T12:56:38;16.40;50.60
37232;DHT22;23125;48.156;15.954;2024-02-28T12:59:04;16.40;50.50
37232;DHT22;23125;48.156;15.954;2024-02-28T13:01:31;16.50;50.70
37232;DHT22;23125;48.156;15.954;2024-02-28T13:03:57;16.50;50.70
37232;DHT22;23125;48.156;15.954;2024-02-28T13:06:23;16.50;50.70
37232;DHT22;23125;48.156;15.954;2024-02-28T13:08:49;16.60;50.60
37232;DHT22;23125;48.156;15.954;2024-02-28T13:11:19;16.70;50.70
37232;DHT22;23125;48.156;15.954;2024-02-28T13:13:47;16.60;50.30
37232;DHT22;23125;48.156;15.954;2024-02-28T13:16:14;16.60;50.30
37232;DHT22;23125;48.156;15.954;2024-02-28T13:18:40;16.70;50.30
37232;DHT22;23125;48.156;15.954;2024-02-28T13:21:06;16.70;50.30
37232;DHT22;23125;48.156;15.954;2024-02-28T13:23:32;16.70;50.50
37232;DHT22;23125;48.156;15.954;2024-02-28T13:26:00;16.80;50.50
37232;DHT22;23125;48.156;15.954;2024-02-28T13:28:27;16.70;50.20
37232;DHT22;23125;48.156;15.954;2024-02-28T13:31:03;16.70;50.10
37232;DHT22;23125;48.156;15.954;2024-02-28T13:33:31;16.70;50.00
37232;DHT22;23125;48.156;15.954;2024-02-28T13:35:57;16.70;49.60
37232;DHT22;23125;48.156;15.954;2024-02-28T13:38:23;16.60;49.50
37232;DHT22;23125;48.156;15.954;2024-02-28T13:40:49;16.60;49.70
37232;DHT22;23125;48.156;15.954;2024-02-28T13:43:16;16.50;49.60
37232;DHT22;23125;48.156;15.954;2024-02-28T13:45:48;16.50;49.50
37232;DHT22;23125;48.156;15.954;2024-02-28T13:48:22;16.40;49.40
37232;DHT22;23125;48.156;15.954;2024-02-28T13:50:50;16.40;49.50
37232;DHT22;23125;48.156;15.954;2024-02-28T13:53:16;16.40;49.40
37232;DHT22;23125;48.156;15.954;2024-02-28T13:55:42;16.30;49.50
37232;DHT22;23125;48.156;15.954;2024-02-28T13:58:10;16.20;49.50
37232;DHT22;23125;48.156;15.954;2024-02-28T14:00:37;16.20;49.70
37232;DHT22;23125;48.156;15.954;2024-02-28T14:03:04;16.20;49.80
37232;DHT22;23125;48.156;15.954;2024-02-28T14:05:30;16.10;49.90
37232;DHT22;23125;48.156;15.954;2024-02-28T14:07:56;16.10;50.10
37232;DHT22;23125;48.156;15.954;2024-02-28T14:10:26;16.20;50.10
37232;DHT22;23125;48.156;15.954;2024-02-28T14:12:52;16.20;50.20
37232;DHT22;23125;48.156;15.954;2024-02-28T14:15:21;16.20;50.30
37232;DHT22;23125;48.156;15.954;2024-02-28T14:17:48;16.20;50.40
37232;DHT22;23125;48.156;15.954;2024-02-28T14:20:14;16.20;50.40
37232;DHT22;23125;48.156;15.954;2024-02-28T14:22:41;16.20;50.50
37232;DHT22;23125;48.156;15.954;2024-02-28T14:25:12;16.20;50.50
37232;DHT22;23125;48.156;15.954;2024-02-28T14:27:39;16.30;51.10
37232;DHT22;23125;48.156;15.954;2024-02-28T14:30:07;16.30;50.30
37232;DHT22;23125;48.156;15.954;2024-02-28T14:32:38;16.30;50.30
37232;DHT22;23125;48.156;15.954;2024-02-28T14:35:05;16.30;50.30
37232;DHT22;23125;48.156;15.954;2024-02-28T14:37:36;16.30;50.20
37232;DHT22;23125;48.156;15.954;2024-02-28T14:40:03;16.30;50.10
37232;DHT22;23125;48.156;15.954;2024-02-28T14:42:32;16.30;50.10
37232;DHT22;23125;48.156;15.954;2024-02-28T14:44:59;16.30;50.20
37232;DHT22;23125;48.156;15.954;2024-02-28T14:47:25;16.30;50.30
37232;DHT22;23125;48.156;15.954;2024-02-28T14:49:51;16.30;50.20
37232;DHT22;23125;48.156;15.954;2024-02-28T14:52:17;16.30;50.20
37232;DHT22;23125;48.156;15.954;2024-02-28T14:54:43;16.30;50.30
37232;DHT22;23125;48.156;15.954;2024-02-28T14:57:10;16.30;50.30
37232;DHT22;23125;48.156;15.954;2024-02-28T14:59:36;16.30;50.30
37232;DHT22;23125;48.156;15.954;2024-02-28T15:02:02;16.20;50.10
37232;DHT22;23125;48.156;15.954;2024-02-28T15:04:29;16.20;50.10
37232;DHT22;23125;48.156;15.954;2024-02-28T15:06:55;16.20;50.20
37232;DHT22;23125;48.156;15.954;2024-02-28T15:09:20;16.20;50.10
37232;DHT22;23125;48.156;15.954;2024-02-28T15:11:50;16.10;50.00
37232;DHT22;23125;48.156;15.954;2024-02-28T15:14:16;16.00;50.10